KIAB/IAB METAR and TAF weather

Enter ICAO airport designator
Station Type Date Time Source
KIAB METAR 2020/09/19 16:56 UTC NOAA

KIAB 191656Z AUTO 20011KT 10SM FEW170 FEW210 21/13 A3024 RMK AO2 SLP236 T02140133


Station Type Date Time Source
KIAB Decoded METAR 2020/09/19 16:56 UTC NOAA

McConnell Air Force Base, KS, United States (KIAB) 37-37N 097-16W
Sep 19, 2020 - 12:56 PM EDT / 2020.09.19 1656 UTC
Wind: from the SSW (200 degrees) at 13 MPH (11 KT):0
Visibility: 10 mile(s):0
Sky conditions: mostly clear
Temperature: 70.5 F (21.4 C)
Dew Point: 55.9 F (13.3 C)
Relative Humidity: 59%
Pressure (altimeter): 30.24 in. Hg (1024 hPa)
ob: KIAB 191656Z AUTO 20011KT 10SM FEW170 FEW210 21/13 A3024 RMK AO2 SLP236 T02140133
cycle: 17

Station Type Date Time Source
KIAB TAF 2020/09/19 10:51 UTC NOAA

TAF TAF KIAB 191047Z 1910/2016 VRB06KT 9999 SKC QNH3019INS
BECMG 1914/1915 18012KT 9999 FEW300 QNH3011INS TX26/1920Z TN12/1911Z LAST NO
AMDS AFT 1910 NEXT 2110

Example: see airport list